TAF

Looking Back 6 Hours

Worst Weather Category
LocationTimeVisiblityCeilingWeatherWind SpeedWind Gust
KPBF301720Z61500Light Showers SW 15SW 25

  • TAFPBF TAF KPBF 301720Z 3018/0118 22009KT P6SM SCT015 OVC050
          TEMPO 3018/3020 -SHRA BKN015
          FM302000 25010G20KT P6SM SCT025 BKN050
          TEMPO 3020/3022 BKN025
          FM010000 23015G25KT P6SM SCT050 OVC100
          FM011400 26012KT P6SM SCT100 BKN250 =